Time;durP1;ratioP1;P1;durP2;ratioP2;P2;SDS_P1;SDS_P2;PMS_P1;PMS_P2;Temp;Humidity;BMP_temperature;BMP_pressure;BME280_temperature;BME280_humidity;BME280_pressure;Samples;Min_cycle;Max_cycle;Signal;HPM_P1;HPM_P2
2023/11/01 00:01:36;;;;;;;22.70;11.00;;;23.30;99.90;;;;;;5029660;28;20057;-44
2023/11/01 00:04:02;;;;;;;23.38;10.77;;;23.30;99.90;;;;;;5030653;28;20359;-44
2023/11/01 00:06:28;;;;;;;25.33;11.23;;;23.30;99.90;;;;;;5029614;28;20052;-43
2023/11/01 00:08:55;;;;;;;25.05;11.63;;;23.30;99.90;;;;;;5029574;28;20018;-44
2023/11/01 00:11:21;;;;;;;21.75;11.02;;;23.30;99.90;;;;;;5030124;28;20041;-43
2023/11/01 00:13:47;;;;;;;21.10;9.95;;;23.30;99.90;;;;;;5030664;28;20033;-43
2023/11/01 00:16:13;;;;;;;25.00;10.13;;;23.30;99.90;;;;;;5030168;28;20042;-43
2023/11/01 00:18:38;;;;;;;20.35;10.20;;;23.30;99.90;;;;;;5029853;28;20425;-42
2023/11/01 00:21:04;;;;;;;21.92;10.25;;;23.30;99.90;;;;;;5030524;28;20057;-43
2023/11/01 00:23:30;;;;;;;18.77;9.48;;;23.30;99.90;;;;;;5033070;28;20462;-43
2023/11/01 00:25:56;;;;;;;19.17;9.77;;;23.30;99.90;;;;;;5023630;28;20109;-43
2023/11/01 00:28:22;;;;;;;22.45;9.27;;;23.30;99.90;;;;;;5015375;28;20389;-44
2023/11/01 00:30:47;;;;;;;24.30;10.18;;;23.30;99.90;;;;;;5029442;28;20440;-43
2023/11/01 00:33:13;;;;;;;22.30;9.27;;;23.30;99.90;;;;;;5032209;28;20109;-43
2023/11/01 00:35:39;;;;;;;18.73;9.02;;;23.30;99.90;;;;;;5033409;28;20030;-44
2023/11/01 00:38:08;;;;;;;23.65;9.63;;;23.30;99.90;;;;;;5032993;28;20022;-43
2023/11/01 00:40:35;;;;;;;17.35;8.93;;;23.30;99.90;;;;;;5032240;28;20048;-44
2023/11/01 00:43:01;;;;;;;17.55;8.52;;;23.30;99.90;;;;;;5032761;28;20044;-42
2023/11/01 00:45:26;;;;;;;18.83;8.65;;;23.30;99.90;;;;;;5032151;28;20033;-44
2023/11/01 00:47:52;;;;;;;20.58;9.57;;;23.30;99.90;;;;;;5032566;28;20018;-43
2023/11/01 00:50:18;;;;;;;16.63;8.20;;;23.30;99.90;;;;;;5033035;28;20029;-42
2023/11/01 00:52:45;;;;;;;16.23;7.90;;;23.30;99.90;;;;;;5032747;28;20017;-45
2023/11/01 00:55:11;;;;;;;22.27;7.70;;;23.30;99.90;;;;;;5031884;28;20025;-44
2023/11/01 00:57:37;;;;;;;19.63;8.45;;;23.30;99.90;;;;;;5014886;28;20033;-45
2023/11/01 01:00:06;;;;;;;15.13;7.25;;;23.30;99.90;;;;;;5032869;28;20435;-44
2023/11/01 01:02:32;;;;;;;21.10;8.23;;;23.30;99.90;;;;;;5032213;28;20084;-44
2023/11/01 01:04:58;;;;;;;19.63;7.88;;;23.30;99.90;;;;;;5031753;28;20049;-44
2023/11/01 01:07:23;;;;;;;16.65;7.70;;;23.30;99.90;;;;;;5032399;28;20033;-44
2023/11/01 01:09:49;;;;;;;18.02;7.60;;;23.30;99.90;;;;;;5032673;28;20025;-44
2023/11/01 01:12:15;;;;;;;15.25;7.40;;;23.30;99.90;;;;;;5031938;28;20030;-43
2023/11/01 01:14:41;;;;;;;13.20;6.80;;;23.30;99.90;;;;;;5014862;28;20453;-43
2023/11/01 01:17:07;;;;;;;16.67;8.00;;;23.30;99.90;;;;;;5032224;28;20376;-44
2023/11/01 01:19:32;;;;;;;16.83;7.05;;;23.30;99.90;;;;;;5032114;28;20079;-45
2023/11/01 01:21:58;;;;;;;12.43;6.78;;;23.20;99.90;;;;;;5032117;28;20465;-43
2023/11/01 01:24:24;;;;;;;13.63;6.68;;;23.30;99.90;;;;;;5032414;28;20366;-44
2023/11/01 01:26:50;;;;;;;16.15;6.95;;;23.30;99.90;;;;;;5031120;28;20026;-44
2023/11/01 01:29:16;;;;;;;16.15;7.30;;;23.30;99.90;;;;;;5031195;28;20028;-44
2023/11/01 01:31:41;;;;;;;12.80;6.57;;;23.30;99.90;;;;;;5032030;28;20108;-44
2023/11/01 01:34:07;;;;;;;14.77;6.43;;;23.30;99.90;;;;;;5032002;28;20135;-44
2023/11/01 01:36:33;;;;;;;15.35;6.97;;;23.20;99.90;;;;;;5032198;28;20033;-43
2023/11/01 01:38:59;;;;;;;16.33;6.22;;;23.20;99.90;;;;;;5031832;28;20068;-43
2023/11/01 01:41:25;;;;;;;50.45;8.13;;;23.20;99.90;;;;;;5031073;28;20531;-43
2023/11/01 01:43:50;;;;;;;17.10;6.60;;;23.20;99.90;;;;;;5031493;28;20030;-42
2023/11/01 01:46:18;;;;;;;14.00;6.18;;;23.20;99.90;;;;;;5031583;28;20056;-44
2023/11/01 01:48:45;;;;;;;13.90;6.38;;;23.20;99.90;;;;;;5031798;28;20023;-43
2023/11/01 01:51:12;;;;;;;13.32;5.80;;;23.20;99.90;;;;;;5031020;28;20029;-43
2023/11/01 01:53:44;;;;;;;11.18;5.65;;;23.20;99.90;;;;;;5031579;28;20057;-43
2023/11/01 01:56:11;;;;;;;12.45;5.65;;;23.20;99.90;;;;;;5030483;28;20038;-42
2023/11/01 01:58:38;;;;;;;10.50;5.82;;;23.20;99.90;;;;;;5030274;28;20029;-43
2023/11/01 02:01:04;;;;;;;13.30;5.32;;;23.20;99.90;;;;;;5032598;28;20041;-43
2023/11/01 02:03:30;;;;;;;10.63;5.05;;;23.20;99.90;;;;;;5031369;28;20025;-43
2023/11/01 02:05:56;;;;;;;12.95;5.25;;;23.20;99.90;;;;;;5031772;28;20025;-43
2023/11/01 02:08:24;;;;;;;11.77;5.32;;;23.20;99.90;;;;;;5029869;28;20018;-43
2023/11/01 02:10:50;;;;;;;15.88;6.07;;;23.10;99.90;;;;;;5030658;28;20033;-43
2023/11/01 02:13:16;;;;;;;7.70;4.32;;;23.20;99.90;;;;;;5030487;28;20469;-45
2023/11/01 02:15:44;;;;;;;11.70;5.20;;;23.20;99.90;;;;;;5031271;28;20397;-44
2023/11/01 02:18:13;;;;;;;9.85;4.78;;;23.10;99.90;;;;;;5031066;28;20014;-45
2023/11/01 02:20:41;;;;;;;12.57;6.07;;;23.10;99.90;;;;;;5013867;28;20025;-44
2023/11/01 02:23:13;;;;;;;12.00;5.25;;;23.10;99.90;;;;;;5032008;28;20032;-45
2023/11/01 02:25:41;;;;;;;10.32;5.13;;;23.10;99.90;;;;;;5031396;28;20104;-45
2023/11/01 02:28:08;;;;;;;10.88;4.57;;;23.10;99.90;;;;;;5032511;28;20029;-45
2023/11/01 02:30:34;;;;;;;;;;;23.10;99.90;;;;;;5036103;28;20160;-44
2023/11/01 02:33:00;;;;;;;8.50;4.63;;;23.10;99.90;;;;;;5035059;28;19995;-43
2023/11/01 02:35:26;;;;;;;9.75;4.60;;;23.10;99.90;;;;;;5034790;28;20033;-43
2023/11/01 02:37:52;;;;;;;9.50;4.22;;;23.10;99.90;;;;;;5035328;28;20468;-45
2023/11/01 02:40:18;;;;;;;10.63;4.65;;;23.10;99.90;;;;;;5034016;28;20026;-44
2023/11/01 02:42:48;;;;;;;10.45;5.05;;;23.10;99.90;;;;;;5016274;28;20017;-44
2023/11/01 02:45:15;;;;;;;9.77;5.38;;;23.10;99.90;;;;;;5034717;28;20034;-45
2023/11/01 02:47:42;;;;;;;9.43;4.38;;;23.10;99.90;;;;;;5034723;28;20018;-43
2023/11/01 02:50:10;;;;;;;8.27;4.60;;;23.10;99.90;;;;;;5017803;28;20104;-44
2023/11/01 02:52:40;;;;;;;11.65;5.10;;;23.10;99.90;;;;;;5035240;28;20039;-45
2023/11/01 02:55:10;;;;;;;11.52;4.53;;;23.00;99.90;;;;;;5034607;28;20021;-44
2023/11/01 02:57:37;;;;;;;6.28;4.43;;;23.10;99.90;;;;;;5035012;28;20029;-45
2023/11/01 03:00:08;;;;;;;7.80;4.47;;;23.00;99.90;;;;;;5017578;28;20536;-44
2023/11/01 03:02:35;;;;;;;12.15;4.65;;;23.00;99.90;;;;;;5034876;28;20451;-44
2023/11/01 03:05:01;;;;;;;6.47;3.90;;;23.00;99.90;;;;;;5034198;28;20465;-44
2023/11/01 03:07:27;;;;;;;8.15;3.90;;;23.10;99.90;;;;;;5032331;28;20500;-44
2023/11/01 03:09:53;;;;;;;7.78;4.80;;;23.00;99.90;;;;;;5023578;28;20037;-44
2023/11/01 03:12:19;;;;;;;14.35;4.88;;;23.00;99.90;;;;;;5034688;28;20017;-43
2023/11/01 03:14:45;;;;;;;10.30;5.05;;;23.00;99.90;;;;;;5017114;28;20037;-44
2023/11/01 03:17:11;;;;;;;8.68;4.72;;;23.00;99.90;;;;;;5029762;28;20069;-43
2023/11/01 03:19:40;;;;;;;10.95;4.95;;;23.00;99.90;;;;;;5023240;28;20057;-43
2023/11/01 03:22:06;;;;;;;8.05;4.57;;;23.00;99.90;;;;;;5004270;28;20025;-43
2023/11/01 03:24:32;;;;;;;8.90;5.15;;;23.00;99.90;;;;;;5030047;28;20031;-43
2023/11/01 03:26:59;;;;;;;9.50;4.70;;;23.00;99.90;;;;;;5033581;28;20362;-44
2023/11/01 03:29:25;;;;;;;10.55;5.22;;;23.00;99.90;;;;;;5033607;28;20025;-44
2023/11/01 03:31:51;;;;;;;11.60;5.10;;;23.00;99.90;;;;;;5034414;28;20029;-43
2023/11/01 03:34:17;;;;;;;7.70;4.70;;;23.00;99.90;;;;;;5032724;28;20031;-43
2023/11/01 03:36:43;;;;;;;11.73;5.18;;;23.00;99.90;;;;;;5034284;28;20041;-44
2023/11/01 03:39:14;;;;;;;9.18;4.95;;;23.00;99.90;;;;;;5034171;28;20025;-43
2023/11/01 03:41:43;;;;;;;8.07;4.72;;;23.00;99.90;;;;;;5034332;28;20056;-44
2023/11/01 03:44:09;;;;;;;14.90;5.30;;;23.00;99.90;;;;;;5032300;28;20030;-43
2023/11/01 03:46:35;;;;;;;11.80;5.97;;;23.00;99.90;;;;;;5033779;28;20033;-45
2023/11/01 03:49:02;;;;;;;7.10;4.53;;;22.90;99.90;;;;;;5034169;28;20084;-43
2023/11/01 03:51:27;;;;;;;9.88;5.20;;;22.90;99.90;;;;;;5034179;28;20104;-44
2023/11/01 03:53:53;;;;;;;7.55;4.50;;;22.90;99.90;;;;;;5034193;28;20175;-43
2023/11/01 03:56:20;;;;;;;13.27;5.90;;;22.90;99.90;;;;;;5034065;28;20472;-43
2023/11/01 03:58:46;;;;;;;11.48;5.90;;;22.90;99.90;;;;;;5034223;28;20048;-43
2023/11/01 04:01:12;;;;;;;7.93;5.07;;;22.90;99.90;;;;;;5034459;28;20049;-44
2023/11/01 04:03:38;;;;;;;9.18;4.72;;;22.90;99.90;;;;;;5034309;28;20457;-44
2023/11/01 04:06:04;;;;;;;9.98;4.85;;;22.90;99.90;;;;;;5033552;28;20104;-44
2023/11/01 04:08:30;;;;;;;6.85;4.97;;;22.90;99.90;;;;;;5033908;28;20087;-44
2023/11/01 04:10:56;;;;;;;8.70;5.60;;;22.90;99.90;;;;;;5033733;28;20022;-43
2023/11/01 04:13:22;;;;;;;10.68;5.40;;;22.90;99.90;;;;;;5034050;28;20033;-43
2023/11/01 04:15:47;;;;;;;9.20;4.55;;;22.90;99.90;;;;;;5033693;28;20508;-43
2023/11/01 04:18:13;;;;;;;7.93;4.43;;;22.80;99.90;;;;;;5033919;28;20029;-44
2023/11/01 04:20:39;;;;;;;7.90;4.47;;;22.80;99.90;;;;;;5015206;28;20077;-43
2023/11/01 04:23:05;;;;;;;10.63;5.03;;;22.80;99.90;;;;;;5031766;28;20021;-43
2023/11/01 04:25:32;;;;;;;8.77;5.43;;;22.80;99.90;;;;;;5031792;28;20025;-44
2023/11/01 04:27:58;;;;;;;9.37;4.90;;;22.80;99.90;;;;;;5033716;28;20017;-44
2023/11/01 04:30:24;;;;;;;8.50;5.18;;;22.80;99.90;;;;;;5033539;28;20041;-43
2023/11/01 04:32:51;;;;;;;10.15;5.25;;;22.80;99.90;;;;;;5033550;28;20036;-43
2023/11/01 04:35:17;;;;;;;10.30;4.82;;;22.80;99.90;;;;;;5032707;28;20052;-43
2023/11/01 04:37:43;;;;;;;9.52;4.82;;;22.80;99.90;;;;;;5032296;28;20030;-43
2023/11/01 04:40:11;;;;;;;8.13;4.50;;;22.80;99.90;;;;;;5033643;28;20108;-43
2023/11/01 04:42:40;;;;;;;7.80;4.43;;;22.70;99.90;;;;;;5033523;28;20030;-44
2023/11/01 04:45:11;;;;;;;10.63;4.72;;;22.70;99.90;;;;;;5033406;28;20017;-44
2023/11/01 04:47:45;;;;;;;7.70;4.63;;;22.70;99.90;;;;;;5033489;28;20018;-44
2023/11/01 04:50:13;;;;;;;8.68;4.43;;;22.70;99.90;;;;;;5012702;28;20034;-43
2023/11/01 04:52:41;;;;;;;8.20;4.57;;;22.70;99.90;;;;;;5009795;28;20424;-43
2023/11/01 04:55:08;;;;;;;6.95;4.05;;;22.70;99.90;;;;;;5012739;28;20030;-44
2023/11/01 04:57:34;;;;;;;8.80;4.13;;;22.70;99.90;;;;;;5012090;28;20032;-44
2023/11/01 05:00:00;;;;;;;10.77;4.30;;;22.70;99.90;;;;;;5013397;28;20381;-44
2023/11/01 05:02:26;;;;;;;7.22;4.25;;;22.70;99.90;;;;;;5012963;28;20056;-44
2023/11/01 05:04:52;;;;;;;9.90;5.55;;;22.70;99.90;;;;;;5013197;28;20018;-44
2023/11/01 05:07:19;;;;;;;8.48;4.68;;;22.70;99.90;;;;;;5030637;28;20479;-44
2023/11/01 05:09:45;;;;;;;7.43;4.88;;;22.70;99.90;;;;;;5031410;28;20027;-43
2023/11/01 05:12:11;;;;;;;5.88;4.43;;;22.70;99.90;;;;;;5032912;28;20104;-43
2023/11/01 05:14:37;;;;;;;7.30;4.32;;;22.70;99.90;;;;;;5032593;28;20025;-44
2023/11/01 05:17:03;;;;;;;7.75;4.03;;;22.70;99.90;;;;;;5032629;28;20056;-43
2023/11/01 05:19:29;;;;;;;10.52;4.40;;;22.60;99.90;;;;;;5014967;28;20021;-44
2023/11/01 05:21:55;;;;;;;6.47;3.70;;;22.60;99.90;;;;;;5015005;28;20104;-44
2023/11/01 05:24:20;;;;;;;11.43;5.43;;;22.60;99.90;;;;;;5015113;28;20021;-44
2023/11/01 05:26:46;;;;;;;7.13;4.32;;;22.60;99.90;;;;;;5032557;28;20034;-44
2023/11/01 05:29:12;;;;;;;5.93;4.00;;;22.60;99.90;;;;;;5032928;28;20021;-44
2023/11/01 05:31:38;;;;;;;6.47;3.90;;;22.60;99.90;;;;;;5032424;28;20021;-44
2023/11/01 05:34:05;;;;;;;11.25;4.57;;;22.60;99.90;;;;;;5031018;28;20025;-44
2023/11/01 05:36:31;;;;;;;7.25;4.45;;;22.60;99.90;;;;;;5032273;28;20040;-44
2023/11/01 05:38:58;;;;;;;6.68;3.95;;;22.50;99.90;;;;;;5032414;28;20100;-43
2023/11/01 05:41:24;;;;;;;6.50;3.67;;;22.60;99.90;;;;;;5032428;28;20453;-43
2023/11/01 05:43:49;;;;;;;6.47;3.97;;;22.50;99.90;;;;;;5032269;28;20045;-43
2023/11/01 05:46:22;;;;;;;6.47;3.83;;;22.50;99.90;;;;;;5032236;28;20025;-43
2023/11/01 05:48:48;;;;;;;5.65;3.70;;;22.50;99.90;;;;;;5015261;28;20033;-43
2023/11/01 05:51:15;;;;;;;7.75;4.38;;;22.60;99.90;;;;;;5032515;28;20482;-43
2023/11/01 05:53:41;;;;;;;6.97;3.70;;;22.50;99.90;;;;;;5032378;28;20101;-43
2023/11/01 05:56:08;;;;;;;5.55;3.63;;;22.50;99.90;;;;;;5032007;28;20370;-43
2023/11/01 05:58:34;;;;;;;7.05;3.90;;;22.50;99.90;;;;;;5032159;28;20517;-44
2023/11/01 06:01:01;;;;;;;6.15;4.07;;;22.50;99.90;;;;;;5031867;28;20069;-43
2023/11/01 06:03:26;;;;;;;8.10;3.70;;;22.50;99.90;;;;;;5033458;28;20039;-43
2023/11/01 06:05:57;;;;;;;7.13;3.42;;;22.50;99.90;;;;;;5036200;28;20473;-43
2023/11/01 06:08:26;;;;;;;5.97;3.50;;;22.50;99.90;;;;;;5016898;28;20075;-44
2023/11/01 06:10:54;;;;;;;5.85;3.47;;;22.50;99.90;;;;;;5035458;28;20022;-43
2023/11/01 06:13:20;;;;;;;9.15;3.60;;;22.50;99.90;;;;;;5035550;28;20021;-43
2023/11/01 06:15:48;;;;;;;6.60;3.92;;;22.50;99.90;;;;;;5036037;28;20040;-43
2023/11/01 06:18:13;;;;;;;7.25;3.50;;;22.50;99.90;;;;;;5036268;28;20033;-43
2023/11/01 06:20:39;;;;;;;6.75;3.03;;;22.50;99.90;;;;;;5035983;28;20477;-44
2023/11/01 06:23:07;;;;;;;7.88;4.07;;;22.50;99.90;;;;;;5035992;28;20385;-43
2023/11/01 06:25:34;;;;;;;6.10;3.40;;;22.50;99.90;;;;;;5035877;28;20018;-44
2023/11/01 06:28:00;;;;;;;5.88;3.90;;;22.50;99.90;;;;;;5035896;28;20372;-43
2023/11/01 06:30:26;;;;;;;6.22;3.42;;;22.50;99.90;;;;;;5035882;28;20029;-44
2023/11/01 06:32:52;;;;;;;7.18;3.50;;;22.50;99.90;;;;;;5018114;28;20044;-44
2023/11/01 06:35:17;;;;;;;4.75;3.05;;;22.50;99.90;;;;;;5034809;28;20029;-44
2023/11/01 06:37:43;;;;;;;5.03;3.33;;;22.50;99.90;;;;;;5035022;28;20025;-44
2023/11/01 06:40:10;;;;;;;5.38;3.10;;;22.50;99.90;;;;;;5034898;28;20020;-44
2023/11/01 06:42:36;;;;;;;5.40;2.90;;;22.50;99.90;;;;;;5035562;28;20036;-43
2023/11/01 06:45:02;;;;;;;6.22;3.13;;;22.50;99.90;;;;;;5035423;28;20030;-44
2023/11/01 06:47:27;;;;;;;5.20;3.33;;;22.50;99.90;;;;;;5035514;28;20456;-44
2023/11/01 06:49:53;;;;;;;7.18;3.70;;;22.50;99.90;;;;;;5017658;28;20060;-44
2023/11/01 06:52:19;;;;;;;4.60;2.90;;;22.40;99.90;;;;;;5017825;28;20033;-44
2023/11/01 06:54:45;;;;;;;7.40;3.47;;;22.50;99.90;;;;;;5035818;28;20419;-43
2023/11/01 06:57:11;;;;;;;4.80;3.22;;;22.40;99.90;;;;;;5035117;28;20040;-44
2023/11/01 06:59:40;;;;;;;4.47;2.78;;;22.50;99.90;;;;;;5035148;28;20021;-43
2023/11/01 07:02:06;;;;;;;5.93;3.15;;;22.50;99.90;;;;;;5034416;28;20053;-43
2023/11/01 07:04:32;;;;;;;6.47;2.90;;;22.40;99.90;;;;;;4999130;28;20160;-43
2023/11/01 07:06:58;;;;;;;3.80;2.58;;;22.50;99.90;;;;;;5032662;28;20182;-43
2023/11/01 07:09:24;;;;;;;7.28;3.83;;;22.50;99.90;;;;;;5034843;28;20025;-43
2023/11/01 07:11:50;;;;;;;6.13;3.20;;;22.50;99.90;;;;;;5034942;28;20389;-43
2023/11/01 07:14:17;;;;;;;4.60;2.97;;;22.50;99.90;;;;;;5034652;28;20024;-44
2023/11/01 07:16:45;;;;;;;4.75;3.03;;;22.50;99.90;;;;;;5034899;28;20033;-43
2023/11/01 07:19:11;;;;;;;5.97;3.15;;;22.50;99.90;;;;;;5017204;28;20030;-43
2023/11/01 07:21:39;;;;;;;6.07;3.53;;;22.60;99.90;;;;;;5034663;28;20036;-44
2023/11/01 07:24:09;;;;;;;5.20;2.85;;;22.60;99.90;;;;;;5034831;28;20025;-43
2023/11/01 07:26:35;;;;;;;4.32;3.10;;;22.60;99.90;;;;;;5034660;28;20472;-43
2023/11/01 07:29:01;;;;;;;7.35;3.15;;;22.60;99.90;;;;;;5034811;28;20029;-43
2023/11/01 07:31:27;;;;;;;4.10;2.83;;;22.70;99.90;;;;;;5034688;28;20372;-43
2023/11/01 07:33:53;;;;;;;4.65;3.05;;;22.60;99.90;;;;;;5034444;28;20101;-43
2023/11/01 07:36:19;;;;;;;4.93;2.95;;;22.70;99.90;;;;;;5034332;28;20041;-43
2023/11/01 07:38:46;;;;;;;4.50;3.00;;;22.70;99.90;;;;;;5035102;28;20128;-43
2023/11/01 07:41:12;;;;;;;7.07;3.30;;;22.70;99.90;;;;;;5016934;28;20017;-43
2023/11/01 07:43:41;;;;;;;6.53;3.75;;;22.80;99.90;;;;;;5034394;28;20029;-44
2023/11/01 07:46:08;;;;;;;4.72;3.10;;;22.80;99.90;;;;;;5016718;28;20156;-43
2023/11/01 07:48:35;;;;;;;8.48;3.72;;;22.80;99.90;;;;;;5034178;28;20024;-43
2023/11/01 07:51:07;;;;;;;4.60;2.95;;;22.80;99.90;;;;;;5034303;28;20477;-43
2023/11/01 07:53:36;;;;;;;5.90;3.55;;;22.90;99.90;;;;;;5034366;28;20092;-44
2023/11/01 07:56:03;;;;;;;6.03;3.67;;;22.90;99.90;;;;;;5034131;28;20029;-44
2023/11/01 07:58:29;;;;;;;9.20;3.70;;;22.90;99.90;;;;;;5016453;28;20029;-44
2023/11/01 08:00:55;;;;;;;8.00;3.60;;;22.90;99.90;;;;;;5033963;28;20108;-44
2023/11/01 08:03:22;;;;;;;4.47;2.80;;;23.00;99.90;;;;;;5033778;28;20060;-44
2023/11/01 08:05:48;;;;;;;3.88;3.03;;;23.00;99.90;;;;;;5034092;28;20473;-44
2023/11/01 08:08:14;;;;;;;5.88;3.20;;;23.00;99.90;;;;;;5033537;28;20137;-43
2023/11/01 08:10:40;;;;;;;5.53;3.25;;;23.10;99.90;;;;;;5033860;28;20040;-43
2023/11/01 08:13:05;;;;;;;5.28;3.00;;;23.10;99.90;;;;;;5033928;28;20104;-44
2023/11/01 08:15:33;;;;;;;6.50;3.80;;;23.10;99.90;;;;;;5015042;28;20132;-44
2023/11/01 08:18:02;;;;;;;7.25;3.80;;;23.10;99.90;;;;;;5033363;28;20494;-43
2023/11/01 08:20:29;;;;;;;4.90;3.05;;;23.10;99.90;;;;;;5033544;28;20034;-44
2023/11/01 08:22:56;;;;;;;7.35;3.50;;;23.10;99.90;;;;;;5033829;28;20022;-43
2023/11/01 08:25:23;;;;;;;5.70;2.95;;;23.20;99.90;;;;;;5032903;28;20026;-43
2023/11/01 08:27:49;;;;;;;4.20;3.00;;;23.30;99.90;;;;;;5033692;28;20441;-43
2023/11/01 08:30:16;;;;;;;5.13;2.72;;;23.30;99.90;;;;;;5015999;28;20040;-44
2023/11/01 08:32:42;;;;;;;6.10;3.10;;;23.30;99.90;;;;;;5033544;28;20373;-44
2023/11/01 08:35:09;;;;;;;4.32;2.90;;;23.30;99.90;;;;;;5033513;28;20489;-44
2023/11/01 08:37:35;;;;;;;5.00;2.53;;;23.40;99.90;;;;;;5033524;28;20030;-43
2023/11/01 08:40:01;;;;;;;7.17;3.23;;;23.40;99.90;;;;;;5033399;28;20029;-44
2023/11/01 08:42:29;;;;;;;7.05;3.30;;;23.30;99.90;;;;;;5032893;28;20104;-43
2023/11/01 08:44:55;;;;;;;5.43;3.30;;;23.40;99.90;;;;;;5033252;28;20017;-44
2023/11/01 08:47:42;;;;;;;5.25;3.15;;;23.40;99.90;;;;;;5033382;28;20040;-44
2023/11/01 08:50:12;;;;;;;5.30;3.00;;;23.50;99.90;;;;;;5033199;28;20036;-43
2023/11/01 08:52:45;;;;;;;5.68;2.90;;;23.50;99.90;;;;;;5033061;28;20056;-44
2023/11/01 08:55:13;;;;;;;6.80;3.55;;;23.50;99.90;;;;;;5015276;28;20083;-43
2023/11/01 08:57:39;;;;;;;5.97;3.20;;;23.60;99.90;;;;;;5032978;28;20038;-44
2023/11/01 09:00:06;;;;;;;7.18;3.45;;;23.60;99.90;;;;;;5032874;28;20026;-43
2023/11/01 09:02:32;;;;;;;6.68;3.85;;;23.60;99.90;;;;;;5032511;28;20053;-44
2023/11/01 09:04:58;;;;;;;5.60;3.28;;;23.70;99.90;;;;;;5032867;28;20025;-44
2023/11/01 09:07:24;;;;;;;5.38;3.50;;;23.70;99.90;;;;;;5032832;28;20064;-44
2023/11/01 09:09:50;;;;;;;7.90;3.60;;;23.70;99.90;;;;;;5032510;28;20033;-44
2023/11/01 09:12:17;;;;;;;8.25;3.42;;;23.80;99.90;;;;;;5015202;28;20030;-44
2023/11/01 09:14:44;;;;;;;5.47;3.08;;;23.70;99.90;;;;;;5032651;28;20021;-44
2023/11/01 09:17:10;;;;;;;10.57;3.47;;;23.80;99.90;;;;;;5014870;28;20037;-44
2023/11/01 09:19:36;;;;;;;7.78;3.25;;;23.80;99.90;;;;;;5032019;28;20033;-44
2023/11/01 09:22:02;;;;;;;5.50;3.33;;;23.90;99.90;;;;;;5030801;28;20032;-44
2023/11/01 09:24:28;;;;;;;5.72;3.10;;;23.90;99.90;;;;;;5032144;28;20056;-42
2023/11/01 09:26:53;;;;;;;4.22;3.00;;;23.90;99.90;;;;;;5032674;28;20086;-44
2023/11/01 09:29:19;;;;;;;7.63;3.42;;;24.00;99.90;;;;;;5032456;28;20098;-42
2023/11/01 09:31:45;;;;;;;6.20;3.80;;;24.00;99.90;;;;;;5032280;28;20402;-43
2023/11/01 09:34:11;;;;;;;7.72;3.47;;;24.00;99.90;;;;;;5032451;28;20057;-43
2023/11/01 09:36:38;;;;;;;7.82;3.50;;;24.00;99.90;;;;;;5031917;28;20037;-43
2023/11/01 09:39:05;;;;;;;8.75;3.15;;;24.10;99.90;;;;;;5031529;28;20020;-44
2023/11/01 09:41:40;;;;;;;7.17;3.53;;;24.20;99.90;;;;;;5032275;28;20386;-43
2023/11/01 09:44:09;;;;;;;5.95;3.38;;;24.20;99.90;;;;;;5032147;28;20028;-43
2023/11/01 09:46:36;;;;;;;8.10;4.03;;;24.30;99.90;;;;;;5032246;28;20492;-43
2023/11/01 09:49:04;;;;;;;5.28;3.03;;;24.30;99.90;;;;;;5031993;28;20112;-43
2023/11/01 09:51:31;;;;;;;8.38;2.85;;;24.30;99.90;;;;;;5032167;28;20037;-43
2023/11/01 09:53:57;;;;;;;5.93;3.05;;;24.40;99.90;;;;;;5032319;28;20017;-43
2023/11/01 09:56:27;;;;;;;6.80;3.05;;;24.40;99.90;;;;;;5032125;28;20084;-43
2023/11/01 09:58:54;;;;;;;7.47;2.95;;;24.50;99.90;;;;;;5032271;28;20021;-43
2023/11/01 10:01:20;;;;;;;8.15;3.10;;;24.50;99.90;;;;;;5031878;28;20038;-43
2023/11/01 10:03:46;;;;;;;5.18;3.05;;;24.60;99.90;;;;;;5031888;28;20029;-43
2023/11/01 10:06:12;;;;;;;4.82;2.60;;;24.60;99.90;;;;;;5031635;28;20124;-43
2023/11/01 10:08:38;;;;;;;6.05;2.70;;;24.70;99.90;;;;;;5031898;28;20049;-43
2023/11/01 10:11:04;;;;;;;7.03;3.10;;;24.70;99.90;;;;;;5031854;28;20080;-44
2023/11/01 10:13:30;;;;;;;4.05;2.90;;;24.80;99.90;;;;;;5031933;28;20049;-43
2023/11/01 10:15:56;;;;;;;7.38;3.63;;;24.80;99.90;;;;;;5031841;28;20033;-43
2023/11/01 10:18:22;;;;;;;4.13;2.95;;;24.90;99.90;;;;;;5031832;28;20017;-45
2023/11/01 10:20:48;;;;;;;4.18;2.55;;;24.90;99.90;;;;;;5031812;28;20479;-45
2023/11/01 10:23:14;;;;;;;6.47;3.00;;;25.00;99.90;;;;;;5031304;28;20097;-44
2023/11/01 10:25:45;;;;;;;4.85;3.40;;;25.00;99.90;;;;;;5030933;28;20112;-41
2023/11/01 10:28:14;;;;;;;6.72;3.35;;;25.10;99.90;;;;;;5031013;28;20033;-44
2023/11/01 10:30:46;;;;;;;5.03;3.10;;;25.10;99.90;;;;;;5031664;28;20053;-42
2023/11/01 10:33:15;;;;;;;4.38;2.80;;;25.10;99.90;;;;;;5031686;28;20032;-43
2023/11/01 10:35:41;;;;;;;4.95;3.20;;;25.20;99.90;;;;;;5031750;28;20334;-44
2023/11/01 10:38:08;;;;;;;6.43;3.15;;;25.20;99.90;;;;;;5031819;28;20399;-43
2023/11/01 10:40:34;;;;;;;7.60;3.67;;;25.30;99.90;;;;;;5031610;28;20152;-44
2023/11/01 10:43:02;;;;;;;4.63;2.60;;;25.30;99.90;;;;;;5031653;28;20159;-44
2023/11/01 10:45:28;;;;;;;7.72;3.50;;;25.40;99.90;;;;;;5031901;28;20025;-45
2023/11/01 10:47:55;;;;;;;9.75;2.80;;;25.40;99.90;;;;;;5031675;28;20035;-44
2023/11/01 10:50:22;;;;;;;5.90;3.55;;;25.40;99.90;;;;;;5034520;28;20037;-44
2023/11/01 10:52:48;;;;;;;6.70;3.53;;;25.40;99.90;;;;;;5034526;28;20029;-44
2023/11/01 10:55:18;;;;;;;6.15;3.40;;;25.40;99.90;;;;;;5034708;28;20041;-44
2023/11/01 10:57:51;;;;;;;6.82;3.28;;;25.50;99.90;;;;;;5017033;28;20113;-45
2023/11/01 11:00:41;;;;;;;6.47;3.55;;;25.50;99.90;;;;;;5035029;28;20033;-44
2023/11/01 11:03:20;;;;;;;7.05;3.35;;;25.60;99.90;;;;;;5035019;28;20041;-44
2023/11/01 11:05:48;;;;;;;10.00;3.47;;;25.60;99.90;;;;;;5034780;28;20108;-44
2023/11/01 11:08:14;;;;;;;4.55;3.15;;;25.60;99.90;;;;;;5034889;28;20022;-44
2023/11/01 11:10:42;;;;;;;6.93;3.60;;;25.60;99.90;;;;;;5034699;28;20424;-44
2023/11/01 11:13:12;;;;;;;6.53;3.50;;;25.70;99.90;;;;;;5034937;28;20017;-44
2023/11/01 11:15:47;;;;;;;8.93;3.50;;;25.70;99.90;;;;;;5034693;28;20024;-44
2023/11/01 11:18:18;;;;;;;7.28;3.30;;;25.80;99.90;;;;;;5033843;28;20103;-44
2023/11/01 11:20:45;;;;;;;11.75;3.95;;;25.80;99.90;;;;;;5032376;28;20017;-45
2023/11/01 11:23:16;;;;;;;8.20;2.13;;;25.80;99.90;;;;;;5033227;28;20103;-45
2023/11/01 11:25:52;;;;;;;7.25;1.52;;;25.80;99.90;;;;;;5031892;28;20432;-45
2023/11/01 11:28:18;;;;;;;3.88;1.40;;;25.80;99.90;;;;;;5019736;28;20454;-45
2023/11/01 11:31:00;;;;;;;1.80;0.80;;;25.80;99.90;;;;;;5034656;28;20044;-44
2023/11/01 11:33:26;;;;;;;2.88;1.35;;;25.80;99.90;;;;;;5033558;28;20025;-45
2023/11/01 11:36:14;;;;;;;2.67;0.70;;;25.80;99.90;;;;;;5032940;28;20037;-44
2023/11/01 11:38:49;;;;;;;;;;;25.70;99.90;;;;;;5033955;28;20053;-44
2023/11/01 11:41:17;;;;;;;2.67;0.82;;;25.70;99.90;;;;;;5033397;28;19909;-44
2023/11/01 11:44:05;;;;;;;4.35;1.25;;;25.80;99.90;;;;;;5034269;28;20022;-44
2023/11/01 11:46:34;;;;;;;1.42;0.60;;;25.70;99.90;;;;;;5032159;28;20022;-44
2023/11/01 11:49:05;;;;;;;2.25;1.10;;;25.70;99.90;;;;;;5034547;28;20021;-44
2023/11/01 11:51:35;;;;;;;4.13;0.70;;;25.70;99.90;;;;;;5019215;28;20388;-45
2023/11/01 11:54:15;;;;;;;4.18;1.00;;;25.70;99.90;;;;;;5034337;28;20018;-44
2023/11/01 11:56:41;;;;;;;6.47;1.55;;;25.60;99.90;;;;;;5033879;28;20033;-44
2023/11/01 11:59:09;;;;;;;2.70;1.10;;;25.70;99.90;;;;;;5034062;28;20036;-46
2023/11/01 12:01:35;;;;;;;3.65;1.20;;;25.80;99.90;;;;;;5033268;28;20425;-44
2023/11/01 12:04:04;;;;;;;3.00;1.52;;;25.80;99.90;;;;;;5034223;28;20087;-44
2023/11/01 12:06:40;;;;;;;3.65;1.42;;;25.80;99.90;;;;;;5034126;28;20032;-44
2023/11/01 12:09:22;;;;;;;3.65;1.10;;;25.90;99.90;;;;;;5033453;28;20021;-45
2023/11/01 12:11:50;;;;;;;4.93;1.10;;;25.90;99.90;;;;;;5033161;28;20436;-44
2023/11/01 12:14:20;;;;;;;5.03;1.10;;;25.90;99.90;;;;;;5033053;28;20029;-43
2023/11/01 12:16:47;;;;;;;3.20;1.50;;;26.00;99.90;;;;;;5033680;28;20034;-43
2023/11/01 12:19:14;;;;;;;7.18;1.30;;;26.00;99.90;;;;;;5032483;28;20196;-45
2023/11/01 12:21:41;;;;;;;3.17;1.10;;;26.00;99.90;;;;;;5033045;28;20024;-44
2023/11/01 12:24:09;;;;;;;8.40;1.45;;;26.00;99.90;;;;;;5033118;28;20037;-45
2023/11/01 12:26:54;;;;;;;3.50;1.23;;;25.90;99.90;;;;;;5033159;28;20128;-46
2023/11/01 12:29:20;;;;;;;16.13;13.18;;;25.90;99.90;;;;;;5031345;28;20017;-45
2023/11/01 12:32:03;;;;;;;14.50;12.82;;;25.80;99.90;;;;;;5032891;28;20150;-46
2023/11/01 12:34:33;;;;;;;10.10;8.02;;;25.70;99.90;;;;;;5032527;28;20052;-45
2023/11/01 12:37:00;;;;;;;8.05;6.05;;;25.60;99.90;;;;;;5032213;28;20120;-45
2023/11/01 12:39:26;;;;;;;6.50;3.83;;;25.50;99.90;;;;;;5032556;28;20384;-45
2023/11/01 12:41:52;;;;;;;3.47;2.13;;;25.50;99.90;;;;;;5032771;28;20060;-43
2023/11/01 12:44:18;;;;;;;6.90;3.05;;;25.40;99.90;;;;;;5032498;28;20472;-43